Aérodrome :
LOGIN :

S'inscrire | Disclaimer

   EN    FR    IT 

 










Légende :    VFR   VFR Marginal   IFR   IFR Intensif   IFR Très Intensif
Visi : 
Plafond : 
>= 8 km
>= 3000ft
5 à 8 km
1000 à 3000 ft
1500m à 5 km
500 à 1000 ft
800 à 1500m
200 à 500 ft
< 800m
< 200 ft
Symboles :   Orages  Brouillard  Fortes neiges  Fortes précipitations  Vent > 20 kt
SIGMETs :   Divers  Orages  Givrage  Turbulence  Onde Orograph.  Cendres Volcan.







- Altitude de l'aérodrome : 80 ft
- Code IATA : LPL
- Voir les cartes d'approche


EGGP - Liverpool John Lennon

DERNIER METAR :
  • 280750Z VRB03KT 9999 SCT025 BKN049 09/04 Q1017

METARs EXPIRÉS :
  • 280720Z 08004KT 050V120 9999 SCT020 BKN049 09/05 Q1017
  • 280650Z 08004KT 9999 SCT020 BKN049 09/05 Q1017
  • 280620Z 09003KT 9999 SCT013 BKN035 08/05 Q1017
  • 280550Z 08003KT 9999 SCT013 BKN035 08/05 Q1017
  • 280520Z 08004KT 9999 FEW013 BKN022 07/05 Q1017

TAF TAF EGGP
Valide du 28 à 06h jusqu'au 29 à 06h UTC


280455Z 2806/2906 VRB03KT 9999 SCT022
PROB30
TEMPO 2806/2808 8000 BKN012
ATIS : +44 151 907 2000 (option 5 or ext 5150)
Météo : +44 871 750 5150
Pas de NOTAMs connus pour ce terrain.



MET'MAP, la Météo Aéronautique d'un coup d'oeil ! - Copyright ORBIFLY Décembre 2007 - Disclaimer

ORBIFLY MET'MAP TEAM :

Programmation & Développement : Alexandra Zaïnal
Conception & Développement : Baudouin d'Aumeries
Co-Programmation & Développement : Marc-Olivier Méhu
Soutien technique & logistique : Manuel Goepfert

Contact : metmap@orbifly.com




SOURCES & CREDITS :

   NOAA